createdAt,value
2022-12-07T00:01:49.677Z,4.33
2022-12-07T00:04:20.535Z,5.70
2022-12-07T00:06:53.685Z,5.23
2022-12-07T00:09:23.877Z,4.90
2022-12-07T00:11:53.149Z,5.23
2022-12-07T00:14:22.660Z,4.53
2022-12-07T00:16:52.472Z,5.33
2022-12-07T00:19:21.648Z,4.60
2022-12-07T00:21:49.923Z,4.67
2022-12-07T00:24:18.716Z,4.43
2022-12-07T00:26:48.839Z,4.70
2022-12-07T00:29:19.754Z,4.87
2022-12-07T00:31:48.523Z,4.30
2022-12-07T00:34:19.258Z,5.30
2022-12-07T00:36:47.635Z,4.30
2022-12-07T00:39:16.691Z,4.37
2022-12-07T00:41:45.099Z,4.63
2022-12-07T00:44:15.314Z,4.37
2022-12-07T00:46:43.583Z,4.27
2022-12-07T00:49:12.764Z,4.60
2022-12-07T00:51:41.130Z,4.47
2022-12-07T00:54:09.831Z,4.27
2022-12-07T00:56:38.243Z,4.67
2022-12-07T00:59:06.964Z,4.30
2022-12-07T01:01:38.776Z,4.17
2022-12-07T01:04:07.716Z,4.33
2022-12-07T01:06:35.979Z,4.43
2022-12-07T01:09:05.882Z,3.87
2022-12-07T01:11:34.156Z,3.50
2022-12-07T01:14:03.500Z,4.17
2022-12-07T01:16:33.631Z,4.03
2022-12-07T01:19:05.694Z,3.77
2022-12-07T01:21:38.426Z,4.33
2022-12-07T01:24:09.293Z,4.37
2022-12-07T01:26:37.886Z,3.77
2022-12-07T01:29:07.098Z,4.07
2022-12-07T01:31:35.865Z,3.97
2022-12-07T01:34:06.092Z,4.20
2022-12-07T01:36:36.497Z,3.77
2022-12-07T01:39:06.928Z,3.40
2022-12-07T01:41:40.209Z,3.50
2022-12-07T01:44:23.930Z,3.30
2022-12-07T01:46:53.599Z,3.00
2022-12-07T01:49:29.654Z,2.20
2022-12-07T01:52:05.687Z,2.57
2022-12-07T01:54:36.004Z,3.50
2022-12-07T01:57:06.431Z,2.90
2022-12-07T01:59:35.792Z,2.63
2022-12-07T02:02:06.431Z,3.23
2022-12-07T02:04:38.029Z,3.37
2022-12-07T02:07:08.293Z,2.00
2022-12-07T02:09:37.029Z,2.60
2022-12-07T02:12:06.472Z,2.90
2022-12-07T02:14:35.132Z,2.53
2022-12-07T02:17:13.088Z,2.57
2022-12-07T02:20:19.950Z,3.17
2022-12-07T02:23:23.321Z,2.77
2022-12-07T02:26:09.293Z,3.00
2022-12-07T02:28:42.086Z,2.87
2022-12-07T02:31:19.530Z,3.17
2022-12-07T02:33:52.169Z,2.60
2022-12-07T02:36:27.463Z,3.23
2022-12-07T02:39:02.077Z,2.13
2022-12-07T02:41:34.994Z,3.37
2022-12-07T02:44:07.467Z,3.07
2022-12-07T02:46:41.798Z,3.23
2022-12-07T02:49:10.872Z,3.97
2022-12-07T02:51:42.967Z,3.80
2022-12-07T02:54:14.849Z,5.10
2022-12-07T02:56:51.093Z,4.00
2022-12-07T02:59:30.936Z,4.23
2022-12-07T03:02:11.096Z,3.67
2022-12-07T03:04:47.576Z,4.30
2022-12-07T03:07:23.497Z,4.70
2022-12-07T03:09:59.996Z,4.87
2022-12-07T03:12:34.608Z,4.83
2022-12-07T03:15:07.747Z,4.53
2022-12-07T03:17:41.918Z,6.23
2022-12-07T03:20:13.355Z,4.70
2022-12-07T03:22:45.147Z,5.40
2022-12-07T03:25:17.423Z,5.50
2022-12-07T03:27:53.158Z,5.83
2022-12-07T03:30:24.118Z,5.70
2022-12-07T03:32:59.115Z,6.37
2022-12-07T03:35:30.195Z,6.13
2022-12-07T03:38:02.576Z,6.00
2022-12-07T03:40:34.686Z,6.20
2022-12-07T03:43:04.126Z,6.40
2022-12-07T03:45:39.967Z,5.53
2022-12-07T03:48:20.022Z,5.80
2022-12-07T03:50:55.457Z,6.10
2022-12-07T03:53:31.697Z,5.13
2022-12-07T03:56:01.037Z,4.97
2022-12-07T03:58:31.463Z,5.47
2022-12-07T04:01:00.120Z,6.03
2022-12-07T04:03:29.993Z,4.60
2022-12-07T04:05:59.383Z,4.80
2022-12-07T04:08:28.317Z,5.30
2022-12-07T04:10:56.623Z,5.33
2022-12-07T04:13:25.179Z,5.27
2022-12-07T04:15:53.568Z,5.57
2022-12-07T04:18:22.283Z,4.63
2022-12-07T04:20:52.150Z,5.00
2022-12-07T04:23:20.692Z,5.73
2022-12-07T04:25:50.460Z,5.47
2022-12-07T04:28:19.045Z,4.37
2022-12-07T04:30:48.246Z,4.37
2022-12-07T04:33:16.911Z,4.23
2022-12-07T04:35:45.304Z,4.33
2022-12-07T04:38:15.320Z,4.30
2022-12-07T04:40:43.525Z,4.57
2022-12-07T04:43:12.163Z,4.30
2022-12-07T04:45:40.469Z,4.37
2022-12-07T04:48:09.251Z,3.50
2022-12-07T04:50:44.529Z,3.90
2022-12-07T04:53:16.046Z,3.17
2022-12-07T04:55:44.420Z,3.27
2022-12-07T04:58:13.537Z,3.50
2022-12-07T05:00:41.963Z,3.37
2022-12-07T05:03:10.587Z,3.77
2022-12-07T05:05:41.792Z,3.50
2022-12-07T05:08:10.510Z,2.87
2022-12-07T05:10:40.290Z,3.17
2022-12-07T05:13:08.822Z,3.47
2022-12-07T05:15:37.104Z,3.40
2022-12-07T05:18:05.661Z,2.93
2022-12-07T05:20:39.163Z,3.20
2022-12-07T05:23:10.858Z,4.17
2022-12-07T05:25:40.975Z,2.70
2022-12-07T05:28:09.631Z,3.30
2022-12-07T05:30:38.222Z,3.17
2022-12-07T05:33:07.115Z,2.70
2022-12-07T05:35:36.070Z,3.40
2022-12-07T05:38:04.881Z,2.73
2022-12-07T05:40:33.201Z,3.70
2022-12-07T05:43:04.962Z,3.60
2022-12-07T05:45:33.781Z,3.80
2022-12-07T05:48:02.400Z,3.93
2022-12-07T05:50:31.016Z,3.53
2022-12-07T05:52:59.530Z,3.43
2022-12-07T05:55:28.046Z,3.50
2022-12-07T05:58:13.965Z,4.00
2022-12-07T06:00:46.772Z,3.87
2022-12-07T06:03:19.452Z,4.60
2022-12-07T06:05:47.940Z,4.50
2022-12-07T06:08:17.299Z,4.00
2022-12-07T06:10:45.609Z,4.20
2022-12-07T06:13:13.176Z,3.60
2022-12-07T06:15:43.352Z,4.57
2022-12-07T06:18:11.916Z,4.57
2022-12-07T06:20:40.192Z,5.23
2022-12-07T06:23:09.039Z,4.83
2022-12-07T06:25:37.422Z,4.60
2022-12-07T06:28:06.038Z,4.20
2022-12-07T06:30:34.498Z,5.20
2022-12-07T06:33:04.443Z,3.70
2022-12-07T06:35:34.738Z,4.70
2022-12-07T06:38:03.373Z,4.93
2022-12-07T06:40:32.072Z,5.23
2022-12-07T06:43:00.674Z,5.20
2022-12-07T06:45:29.084Z,5.57
2022-12-07T06:47:57.735Z,4.70
2022-12-07T06:50:27.667Z,5.10
2022-12-07T06:52:56.450Z,4.93
2022-12-07T06:55:25.041Z,6.23
2022-12-07T06:57:53.876Z,5.43
2022-12-07T07:00:22.769Z,6.13
2022-12-07T07:02:52.099Z,6.17
2022-12-07T07:05:22.449Z,6.17
2022-12-07T07:08:22.796Z,6.57
2022-12-07T07:10:42.752Z,6.63
2022-12-07T07:13:11.566Z,7.20
2022-12-07T07:15:40.502Z,6.50
2022-12-07T07:18:09.348Z,6.93
2022-12-07T07:20:37.691Z,6.80
2022-12-07T07:23:08.156Z,6.00
2022-12-07T07:25:36.863Z,7.00
2022-12-07T07:28:06.296Z,6.20
2022-12-07T07:30:35.074Z,7.17
2022-12-07T07:33:04.858Z,6.20
2022-12-07T07:35:34.605Z,8.40
2022-12-07T07:38:04.502Z,6.47
2022-12-07T07:40:36.063Z,6.87
2022-12-07T07:43:05.576Z,6.47
2022-12-07T07:45:34.215Z,6.70
2022-12-07T07:48:02.899Z,7.20
2022-12-07T07:50:31.354Z,7.07
2022-12-07T07:53:00.518Z,6.33
2022-12-07T07:55:28.905Z,6.83
2022-12-07T07:57:58.922Z,6.80
2022-12-07T08:00:27.476Z,7.20
2022-12-07T08:02:56.206Z,6.50
2022-12-07T08:05:24.623Z,7.80
2022-12-07T08:07:53.334Z,6.23
2022-12-07T08:10:21.779Z,7.07
2022-12-07T08:13:07.724Z,7.60
2022-12-07T08:15:40.359Z,7.47
2022-12-07T08:18:09.916Z,7.17
2022-12-07T08:20:39.599Z,7.30
2022-12-07T08:23:08.799Z,6.70
2022-12-07T08:25:37.461Z,6.80
2022-12-07T08:28:06.371Z,7.40
2022-12-07T08:30:35.521Z,6.80
2022-12-07T08:33:05.711Z,7.73
2022-12-07T08:35:35.509Z,6.60
2022-12-07T08:38:04.649Z,6.80
2022-12-07T08:40:33.117Z,7.57
2022-12-07T08:43:01.641Z,6.70
2022-12-07T08:45:33.285Z,7.13
2022-12-07T08:48:08.181Z,6.03
2022-12-07T08:50:38.122Z,6.60
2022-12-07T08:53:08.671Z,6.60
2022-12-07T08:55:37.486Z,6.67
2022-12-07T08:58:06.199Z,6.83
2022-12-07T09:00:34.670Z,6.33
2022-12-07T09:03:03.307Z,5.87
2022-12-07T09:05:35.167Z,7.33
2022-12-07T09:08:04.627Z,6.17
2022-12-07T09:10:32.871Z,6.60
2022-12-07T09:13:02.152Z,6.70
2022-12-07T09:15:31.247Z,6.30
2022-12-07T09:18:00.142Z,6.97
2022-12-07T09:20:28.595Z,7.77
2022-12-07T09:22:58.860Z,8.10
2022-12-07T09:25:28.450Z,6.33
2022-12-07T09:28:00.403Z,7.10
2022-12-07T09:30:29.608Z,5.90
2022-12-07T09:32:59.319Z,5.97
2022-12-07T09:35:28.374Z,6.27
2022-12-07T09:37:58.339Z,7.30
2022-12-07T09:40:26.927Z,6.27
2022-12-07T09:42:57.163Z,6.33
2022-12-07T09:45:27.897Z,6.10
2022-12-07T09:47:56.828Z,6.50
2022-12-07T09:50:28.101Z,6.43
2022-12-07T09:53:07.239Z,5.77
2022-12-07T09:55:38.222Z,6.30
2022-12-07T09:58:06.793Z,6.87
2022-12-07T10:00:35.116Z,6.77
2022-12-07T10:03:04.874Z,6.53
2022-12-07T10:05:37.983Z,6.07
2022-12-07T10:08:10.144Z,6.83
2022-12-07T10:10:39.800Z,6.90
2022-12-07T10:13:09.925Z,5.60
2022-12-07T10:16:06.541Z,6.63
2022-12-07T10:18:38.213Z,5.83
2022-12-07T10:21:15.129Z,6.57
2022-12-07T10:24:02.180Z,5.60
2022-12-07T10:26:33.823Z,6.23
2022-12-07T10:29:06.810Z,6.33
2022-12-07T10:31:40.716Z,6.70
2022-12-07T10:34:25.055Z,6.90
2022-12-07T10:36:53.776Z,6.87
2022-12-07T10:39:25.460Z,6.33
2022-12-07T10:41:58.460Z,6.30
2022-12-07T10:44:30.224Z,7.03
2022-12-07T10:47:26.559Z,6.93
2022-12-07T10:50:27.790Z,6.20
2022-12-07T10:53:13.887Z,7.03
2022-12-07T10:56:06.226Z,6.63
2022-12-07T10:58:48.743Z,5.87
2022-12-07T11:01:25.914Z,6.50
2022-12-07T11:04:05.765Z,6.40
2022-12-07T11:06:39.897Z,6.87
2022-12-07T11:10:07.837Z,5.87
2022-12-07T11:12:47.562Z,5.37
2022-12-07T11:15:23.488Z,5.53
2022-12-07T11:18:04.030Z,4.60
2022-12-07T11:20:41.167Z,6.97
2022-12-07T11:23:20.559Z,6.13
2022-12-07T11:25:56.928Z,6.73
2022-12-07T11:28:43.723Z,6.20
2022-12-07T11:31:25.763Z,5.83
2022-12-07T11:34:03.039Z,5.63
2022-12-07T11:36:40.810Z,5.53
2022-12-07T11:39:27.648Z,6.33
2022-12-07T11:42:03.698Z,6.10
2022-12-07T11:44:38.948Z,5.70
2022-12-07T11:47:10.775Z,5.37
2022-12-07T11:49:45.618Z,5.13
2022-12-07T11:52:23.016Z,5.23
2022-12-07T11:54:54.972Z,5.00
2022-12-07T11:57:29.997Z,6.20
2022-12-07T12:00:06.998Z,5.10
2022-12-07T12:02:41.491Z,5.20
2022-12-07T12:05:17.913Z,5.77
2022-12-07T12:10:49.360Z,5.27
2022-12-07T12:17:09.360Z,5.10
2022-12-07T12:19:42.613Z,6.37
2022-12-07T12:22:17.473Z,4.53
2022-12-07T12:24:48.467Z,5.90
2022-12-07T12:27:24.509Z,5.00
2022-12-07T12:29:57.458Z,6.10
2022-12-07T12:32:38.972Z,5.80
2022-12-07T12:35:30.025Z,5.63
2022-12-07T12:38:35.751Z,6.30
2022-12-07T12:41:06.057Z,5.97
2022-12-07T12:43:52.042Z,5.90
2022-12-07T12:46:52.392Z,6.30
2022-12-07T12:49:44.129Z,6.03
2022-12-07T12:52:50.774Z,6.57
2022-12-07T12:55:24.653Z,5.57
2022-12-07T12:58:30.580Z,5.80
2022-12-07T13:01:40.947Z,5.80
2022-12-07T13:04:49.854Z,5.70
2022-12-07T13:07:53.534Z,6.30
2022-12-07T13:10:43.932Z,6.00
2022-12-07T13:13:36.330Z,6.10
2022-12-07T13:16:50.488Z,5.33
2022-12-07T13:19:59.075Z,6.67
2022-12-07T13:22:50.093Z,5.27
2022-12-07T13:25:31.898Z,6.60
2022-12-07T13:28:05.072Z,6.33
2022-12-07T13:30:34.980Z,5.70
2022-12-07T13:33:06.259Z,7.07
2022-12-07T13:35:38.455Z,6.30
2022-12-07T13:38:23.879Z,6.03
2022-12-07T13:41:13.236Z,6.57
2022-12-07T13:44:01.449Z,6.27
2022-12-07T13:46:44.001Z,5.77
2022-12-07T13:49:24.087Z,5.83
2022-12-07T13:51:54.339Z,5.90
2022-12-07T13:54:25.169Z,6.43
2022-12-07T13:56:54.705Z,6.57
2022-12-07T13:59:25.055Z,6.33
2022-12-07T14:01:55.200Z,6.77
2022-12-07T14:04:35.376Z,6.70
2022-12-07T14:07:22.023Z,7.43
2022-12-07T14:10:00.475Z,6.73
2022-12-07T14:12:31.644Z,6.43
2022-12-07T14:15:03.094Z,6.67
2022-12-07T14:17:32.277Z,7.13
2022-12-07T14:20:02.987Z,6.10
2022-12-07T14:22:35.786Z,6.70
2022-12-07T14:25:21.610Z,6.60
2022-12-07T14:27:56.870Z,5.90
2022-12-07T14:30:27.299Z,6.67
2022-12-07T14:32:59.675Z,7.20
2022-12-07T14:35:28.891Z,7.40
2022-12-07T14:37:57.686Z,6.40
2022-12-07T14:40:29.348Z,5.57
2022-12-07T14:43:02.533Z,6.70
2022-12-07T14:45:31.720Z,5.47
2022-12-07T14:53:50.063Z,6.47
2022-12-07T14:56:23.248Z,6.30
2022-12-07T14:58:51.978Z,5.47
2022-12-07T15:01:20.270Z,5.03
2022-12-07T15:03:48.913Z,6.00
2022-12-07T15:06:20.063Z,5.33
2022-12-07T15:08:49.177Z,4.77
2022-12-07T15:11:19.338Z,4.57
2022-12-07T15:14:07.034Z,5.37
2022-12-07T15:16:59.566Z,4.97
2022-12-07T15:19:28.783Z,4.87
2022-12-07T15:21:58.005Z,5.47
2022-12-07T15:24:26.762Z,5.17
2022-12-07T15:26:55.373Z,4.40
2022-12-07T15:29:25.695Z,4.43
2022-12-07T15:31:56.433Z,4.40
2022-12-07T15:34:27.674Z,4.80
2022-12-07T15:36:56.077Z,4.90
2022-12-07T15:39:24.924Z,5.73
2022-12-07T15:41:53.184Z,5.07
2022-12-07T15:44:39.133Z,5.10
2022-12-07T15:47:09.103Z,4.47
2022-12-07T15:49:37.883Z,5.17
2022-12-07T15:52:06.290Z,4.97
2022-12-07T15:54:35.430Z,4.90
2022-12-07T15:57:03.962Z,5.07
2022-12-07T15:59:32.655Z,6.23
2022-12-07T16:02:01.139Z,6.70
2022-12-07T16:04:31.616Z,5.93
2022-12-07T16:06:59.884Z,5.50
2022-12-07T16:09:28.828Z,6.83
2022-12-07T16:11:57.044Z,7.00
2022-12-07T16:14:25.761Z,6.73
2022-12-07T16:16:54.205Z,6.37
2022-12-07T16:19:22.785Z,7.63
2022-12-07T16:21:52.771Z,6.27
2022-12-07T16:24:21.714Z,7.47
2022-12-07T16:26:50.759Z,8.50
2022-12-07T16:29:21.359Z,6.23
2022-12-07T16:31:51.466Z,7.40
2022-12-07T16:34:20.252Z,7.40
2022-12-07T16:37:03.550Z,6.73
2022-12-07T16:39:35.395Z,6.37
2022-12-07T16:42:04.530Z,6.83
2022-12-07T16:44:33.268Z,7.47
2022-12-07T16:47:02.868Z,7.67
2022-12-07T16:49:31.930Z,7.50
2022-12-07T16:52:20.335Z,7.83
2022-12-07T16:54:51.190Z,8.03
2022-12-07T16:57:23.763Z,7.33
2022-12-07T16:59:53.517Z,8.90
2022-12-07T17:02:22.556Z,8.10
2022-12-07T17:04:52.668Z,9.27
2022-12-07T17:07:21.164Z,8.77
2022-12-07T17:09:51.285Z,8.57
2022-12-07T17:12:20.036Z,7.87
2022-12-07T17:15:06.969Z,8.00
2022-12-07T17:17:35.739Z,7.17
2022-12-07T17:20:05.227Z,8.50
2022-12-07T17:22:33.589Z,7.47
2022-12-07T17:25:04.078Z,7.80
2022-12-07T17:27:33.187Z,8.17
2022-12-07T17:30:01.976Z,6.30
2022-12-07T17:32:30.361Z,7.20
2022-12-07T17:34:58.969Z,7.83
2022-12-07T17:37:27.722Z,6.50
2022-12-07T17:39:58.178Z,5.73
2022-12-07T17:42:41.372Z,6.67
2022-12-07T17:45:12.405Z,6.27
2022-12-07T17:47:41.686Z,6.33
2022-12-07T17:50:10.983Z,6.23
2022-12-07T17:52:57.251Z,5.80
2022-12-07T17:55:26.238Z,5.73
2022-12-07T17:57:56.213Z,5.93
2022-12-07T18:00:25.023Z,6.37
2022-12-07T18:02:53.549Z,4.87
2022-12-07T18:05:22.518Z,5.13
2022-12-07T18:07:50.848Z,4.77
2022-12-07T18:10:19.666Z,5.37
2022-12-07T18:12:52.001Z,5.67
2022-12-07T18:15:22.450Z,5.43
2022-12-07T18:17:52.020Z,5.07
2022-12-07T18:20:20.769Z,4.90
2022-12-07T18:22:49.035Z,5.10
2022-12-07T18:25:17.982Z,5.77
2022-12-07T18:27:46.226Z,4.60
2022-12-07T18:30:15.497Z,4.13
2022-12-07T18:32:45.330Z,4.50
2022-12-07T18:35:14.199Z,4.00
2022-12-07T18:37:42.685Z,4.20
2022-12-07T18:40:12.731Z,4.63
2022-12-07T18:42:41.143Z,4.13
2022-12-07T18:45:10.697Z,3.70
2022-12-07T18:47:39.227Z,3.37
2022-12-07T18:50:10.869Z,4.10
2022-12-07T18:52:39.460Z,3.93
2022-12-07T18:55:09.363Z,3.63
2022-12-07T18:57:37.818Z,4.57
2022-12-07T19:00:08.080Z,3.57
2022-12-07T19:02:37.039Z,3.77
2022-12-07T19:05:07.118Z,3.63
2022-12-07T19:07:37.115Z,4.00
2022-12-07T19:10:08.099Z,4.57
2022-12-07T19:12:36.719Z,4.30
2022-12-07T19:15:06.299Z,4.33
2022-12-07T19:17:34.952Z,3.33
2022-12-07T19:20:04.886Z,3.60
2022-12-07T19:22:33.355Z,3.80
2022-12-07T19:25:04.325Z,4.03
2022-12-07T19:27:34.420Z,3.03
2022-12-07T19:30:03.082Z,4.10
2022-12-07T19:32:31.588Z,3.03
2022-12-07T19:35:00.420Z,4.13
2022-12-07T19:37:29.079Z,3.63
2022-12-07T19:39:58.160Z,3.50
2022-12-07T19:42:28.426Z,3.40
2022-12-07T19:44:57.322Z,3.80
2022-12-07T19:47:25.776Z,3.57
2022-12-07T19:49:54.373Z,4.60
2022-12-07T19:52:22.745Z,3.43
2022-12-07T19:54:51.288Z,5.23
2022-12-07T19:57:19.625Z,7.63
2022-12-07T19:59:50.028Z,6.13
2022-12-07T20:02:18.577Z,7.03
2022-12-07T20:04:48.115Z,8.13
2022-12-07T20:07:17.221Z,7.83
2022-12-07T20:09:46.068Z,6.63
2022-12-07T20:12:31.955Z,8.00
2022-12-07T20:15:02.627Z,7.27
2022-12-07T20:17:31.368Z,5.73
2022-12-07T20:19:59.922Z,7.43
2022-12-07T20:22:28.310Z,7.37
2022-12-07T20:24:56.844Z,6.80
2022-12-07T20:27:25.603Z,5.63
2022-12-07T20:29:54.465Z,5.50
2022-12-07T20:32:24.198Z,5.07
2022-12-07T20:34:53.655Z,6.20
2022-12-07T20:37:21.998Z,6.10
2022-12-07T20:39:50.616Z,5.87
2022-12-07T20:42:36.798Z,5.63
2022-12-07T20:45:08.454Z,5.00
2022-12-07T20:47:38.760Z,5.60
2022-12-07T20:50:08.910Z,4.77
2022-12-07T20:52:37.298Z,3.67
2022-12-07T20:55:06.587Z,4.40
2022-12-07T20:57:34.917Z,5.60
2022-12-07T21:00:06.749Z,4.37
2022-12-07T21:02:35.167Z,4.67
2022-12-07T21:05:05.927Z,3.57
2022-12-07T21:07:34.621Z,3.80
2022-12-07T21:10:03.418Z,3.60
2022-12-07T21:12:31.880Z,3.73
2022-12-07T21:15:00.676Z,3.43
2022-12-07T21:17:29.226Z,3.90
2022-12-07T21:19:57.753Z,3.30
2022-12-07T21:22:27.566Z,3.87
2022-12-07T21:24:56.149Z,3.83
2022-12-07T21:27:24.434Z,3.60
2022-12-07T21:29:54.475Z,3.03
2022-12-07T21:32:23.111Z,2.87
2022-12-07T21:34:51.644Z,2.93
2022-12-07T21:37:19.902Z,3.03
2022-12-07T21:39:49.956Z,3.37
2022-12-07T21:42:18.208Z,3.70
2022-12-07T21:44:46.803Z,3.23
2022-12-07T21:47:15.053Z,3.30
2022-12-07T21:49:44.077Z,3.30
2022-12-07T21:52:12.733Z,3.87
2022-12-07T21:54:42.694Z,3.50
2022-12-07T21:57:12.525Z,3.20
2022-12-07T21:59:41.194Z,4.07
2022-12-07T22:02:14.513Z,3.10
2022-12-07T22:04:43.697Z,3.07
2022-12-07T22:07:12.207Z,3.50
2022-12-07T22:09:40.863Z,2.97
2022-12-07T22:12:09.362Z,3.07
2022-12-07T22:14:56.978Z,3.60
2022-12-07T22:17:25.484Z,3.23
2022-12-07T22:19:54.124Z,2.97
2022-12-07T22:22:22.737Z,3.70
2022-12-07T22:24:52.250Z,3.73
2022-12-07T22:27:20.618Z,2.97
2022-12-07T22:29:50.943Z,3.13
2022-12-07T22:32:47.151Z,3.90
2022-12-07T22:35:08.467Z,3.70
2022-12-07T22:37:36.741Z,3.33
2022-12-07T22:40:06.341Z,3.83
2022-12-07T22:42:35.060Z,3.40
2022-12-07T22:45:05.899Z,3.43
2022-12-07T22:47:34.547Z,2.90
2022-12-07T22:50:05.377Z,3.50
2022-12-07T22:52:34.009Z,3.20
2022-12-07T22:55:03.192Z,2.87
2022-12-07T22:57:32.547Z,3.60
2022-12-07T23:00:01.154Z,2.70
2022-12-07T23:02:30.833Z,3.13
2022-12-07T23:04:59.555Z,3.00
2022-12-07T23:07:27.806Z,3.60
2022-12-07T23:09:56.751Z,2.90
2022-12-07T23:12:42.717Z,2.93
2022-12-07T23:15:12.480Z,2.70
2022-12-07T23:17:42.435Z,3.27
2022-12-07T23:20:11.860Z,2.93
2022-12-07T23:22:40.243Z,3.40
2022-12-07T23:25:09.539Z,3.27
2022-12-07T23:27:38.149Z,2.73
2022-12-07T23:30:08.235Z,3.03
2022-12-07T23:32:37.338Z,2.50
2022-12-07T23:35:08.349Z,3.37
2022-12-07T23:37:36.649Z,2.43
2022-12-07T23:40:05.979Z,2.70
2022-12-07T23:42:35.034Z,3.70
2022-12-07T23:45:04.203Z,3.57
2022-12-07T23:47:32.892Z,2.73
2022-12-07T23:50:04.262Z,2.47
2022-12-07T23:52:33.970Z,2.13
2022-12-07T23:55:03.190Z,2.60
2022-12-07T23:57:34.008Z,2.10
